Time;durP1;ratioP1;P1;durP2;ratioP2;P2;SDS_P1;SDS_P2;PMS_P1;PMS_P2;Temp;Humidity;BMP_temperature;BMP_pressure;BME280_temperature;BME280_humidity;BME280_pressure;Samples;Min_cycle;Max_cycle;Signal;HPM_P1;HPM_P2
2021/05/20 00:00:30;;;;;;;5.15;1.95;;;13.40;55.80;;;;;;4867507;29;20041;-70
2021/05/20 00:02:56;;;;;;;3.67;1.52;;;13.40;56.10;;;;;;4867212;29;20408;-71
2021/05/20 00:05:22;;;;;;;3.58;1.40;;;13.30;55.80;;;;;;4878468;29;20029;-71
2021/05/20 00:07:47;;;;;;;4.05;1.58;;;13.30;56.20;;;;;;4882924;29;20025;-71
2021/05/20 00:10:15;;;;;;;4.20;1.80;;;13.30;56.80;;;;;;4880474;29;20546;-71
2021/05/20 00:12:43;;;;;;;4.95;1.80;;;13.20;58.80;;;;;;4866935;29;20477;-70
2021/05/20 00:15:09;;;;;;;2.70;1.45;;;13.20;57.60;;;;;;4867203;29;20022;-71
2021/05/20 00:17:35;;;;;;;3.33;1.42;;;13.20;57.80;;;;;;4866928;29;20021;-70
2021/05/20 00:20:01;;;;;;;4.65;1.63;;;13.10;57.50;;;;;;4866993;29;20022;-71
2021/05/20 00:22:29;;;;;;;3.90;1.58;;;13.10;57.30;;;;;;4866874;29;20559;-70
2021/05/20 00:24:55;;;;;;;3.60;1.40;;;13.10;57.30;;;;;;4865732;29;20076;-70
2021/05/20 00:27:21;;;;;;;4.55;1.30;;;13.10;57.30;;;;;;4866632;29;20039;-71
2021/05/20 00:29:49;;;;;;;3.85;1.30;;;13.00;57.20;;;;;;4866921;29;20056;-71
2021/05/20 00:32:15;;;;;;;3.08;1.30;;;13.00;57.00;;;;;;4866693;29;20057;-71
2021/05/20 00:34:41;;;;;;;2.65;1.20;;;13.00;56.80;;;;;;4867051;29;20030;-70
2021/05/20 00:37:07;;;;;;;3.22;1.30;;;13.00;56.80;;;;;;4878932;29;20036;-70
2021/05/20 00:39:33;;;;;;;4.07;1.33;;;13.00;56.60;;;;;;4866661;29;20063;-70
2021/05/20 00:42:08;;;;;;;3.28;1.40;;;12.90;56.60;;;;;;4866341;29;20029;-70
2021/05/20 00:44:50;;;;;;;2.67;1.30;;;12.90;56.60;;;;;;4866769;29;20029;-70
2021/05/20 00:47:21;;;;;;;2.88;1.20;;;12.80;56.60;;;;;;4866655;29;20028;-71
2021/05/20 00:49:47;;;;;;;4.07;1.48;;;12.90;56.60;;;;;;4866682;29;20037;-70
2021/05/20 00:52:13;;;;;;;3.20;1.48;;;12.80;56.50;;;;;;4866700;29;20025;-71
2021/05/20 00:54:39;;;;;;;4.43;1.50;;;12.80;56.80;;;;;;4866412;29;20035;-70
2021/05/20 00:57:05;;;;;;;3.60;1.50;;;12.80;56.90;;;;;;4866218;29;20405;-71
2021/05/20 00:59:31;;;;;;;3.22;1.30;;;12.80;56.90;;;;;;4866427;29;20087;-70
2021/05/20 01:01:57;;;;;;;4.55;1.60;;;12.70;56.90;;;;;;4866054;29;20062;-70
2021/05/20 01:04:23;;;;;;;3.28;1.60;;;12.70;56.70;;;;;;4866323;29;20025;-70
2021/05/20 01:06:49;;;;;;;4.95;2.08;;;12.70;57.00;;;;;;4882244;29;20408;-70
2021/05/20 01:09:14;;;;;;;5.38;1.88;;;12.60;56.80;;;;;;4884783;29;20040;-70
2021/05/20 01:11:41;;;;;;;3.38;1.50;;;12.60;56.80;;;;;;4867912;29;20507;-70
2021/05/20 01:14:11;;;;;;;3.55;1.60;;;12.60;56.80;;;;;;4866226;29;20030;-70
2021/05/20 01:16:40;;;;;;;3.65;1.70;;;12.60;56.80;;;;;;4865524;29;20026;-70
2021/05/20 01:19:07;;;;;;;3.17;1.75;;;12.50;57.00;;;;;;4865814;29;20059;-70
2021/05/20 01:21:34;;;;;;;3.75;1.60;;;12.50;57.60;;;;;;4866039;29;20101;-71
2021/05/20 01:24:01;;;;;;;3.63;1.60;;;12.50;57.40;;;;;;4865739;29;20037;-73
2021/05/20 01:26:29;;;;;;;3.42;1.75;;;12.40;57.40;;;;;;4865997;29;20030;-72
2021/05/20 01:28:55;;;;;;;4.93;2.10;;;12.40;57.10;;;;;;4865660;29;20031;-72
2021/05/20 01:31:20;;;;;;;4.30;2.28;;;12.40;57.30;;;;;;4865885;29;20061;-71
2021/05/20 01:33:46;;;;;;;5.15;2.35;;;12.40;57.60;;;;;;4865574;29;20054;-72
2021/05/20 01:36:12;;;;;;;5.10;3.10;;;12.30;57.30;;;;;;4871225;29;20472;-72
2021/05/20 01:41:06;;;;;;;6.28;2.00;;;12.20;57.30;;;;;;4865745;29;20043;-71
2021/05/20 01:43:33;;;;;;;4.22;1.98;;;12.20;57.90;;;;;;4865441;29;20119;-70
2021/05/20 01:46:00;;;;;;;3.63;2.00;;;12.20;58.30;;;;;;4865740;29;20022;-70
2021/05/20 01:48:37;;;;;;;4.70;2.08;;;12.20;58.10;;;;;;4865293;29;20035;-71
2021/05/20 01:51:09;;;;;;;3.70;2.05;;;12.20;58.60;;;;;;4865693;29;20397;-70
2021/05/20 01:53:36;;;;;;;4.30;1.80;;;12.10;58.50;;;;;;4865314;29;20030;-70
2021/05/20 01:56:03;;;;;;;3.72;1.73;;;12.10;58.30;;;;;;4865331;29;20049;-70
2021/05/20 01:58:29;;;;;;;3.97;1.70;;;12.10;58.30;;;;;;4865052;29;20097;-70
2021/05/20 02:00:55;;;;;;;2.92;1.40;;;12.20;58.30;;;;;;4865344;29;20117;-69
2021/05/20 02:03:22;;;;;;;3.95;1.75;;;12.10;58.20;;;;;;4848484;29;20046;-70
2021/05/20 02:05:47;;;;;;;4.45;1.63;;;12.10;58.10;;;;;;4877660;29;20052;-71
2021/05/20 02:08:13;;;;;;;4.07;1.70;;;12.10;58.90;;;;;;4880807;29;20025;-70
2021/05/20 02:10:39;;;;;;;3.72;1.85;;;12.10;58.10;;;;;;4882473;29;20474;-70
2021/05/20 02:13:05;;;;;;;2.85;1.50;;;12.00;58.00;;;;;;4862273;29;20062;-70
2021/05/20 02:15:32;;;;;;;2.75;1.95;;;12.00;58.70;;;;;;4865078;29;20037;-70
2021/05/20 02:17:58;;;;;;;3.30;1.80;;;12.00;58.50;;;;;;4864910;29;20029;-70
2021/05/20 02:20:23;;;;;;;3.35;1.55;;;12.00;58.40;;;;;;4865047;29;20033;-70
2021/05/20 02:22:50;;;;;;;3.25;1.80;;;12.00;58.50;;;;;;4864952;29;20028;-70
2021/05/20 02:25:16;;;;;;;3.20;1.40;;;12.00;58.50;;;;;;4865076;29;20033;-70
2021/05/20 02:27:42;;;;;;;2.70;1.73;;;12.00;58.60;;;;;;4863364;29;20098;-70
2021/05/20 02:30:09;;;;;;;3.10;1.60;;;12.00;58.70;;;;;;4864881;29;20033;-70
2021/05/20 02:32:35;;;;;;;4.13;1.63;;;11.90;59.20;;;;;;4865022;29;20030;-70
2021/05/20 02:35:02;;;;;;;3.38;1.77;;;11.90;58.60;;;;;;4865013;29;20564;-70
2021/05/20 02:37:28;;;;;;;4.07;1.77;;;11.90;58.40;;;;;;4881287;29;20029;-70
2021/05/20 02:39:53;;;;;;;3.75;2.20;;;11.80;58.60;;;;;;4872899;29;20034;-70
2021/05/20 02:42:19;;;;;;;4.65;2.03;;;11.80;58.70;;;;;;4864592;29;20026;-70
2021/05/20 02:44:45;;;;;;;3.55;2.00;;;11.80;59.30;;;;;;4865070;29;20034;-70
2021/05/20 02:47:11;;;;;;;4.28;2.20;;;11.80;58.80;;;;;;4864612;29;20028;-70
2021/05/20 02:49:37;;;;;;;4.88;2.55;;;11.80;59.40;;;;;;4864929;29;20038;-70
2021/05/20 02:52:03;;;;;;;5.72;1.90;;;11.70;59.70;;;;;;4863361;29;20040;-70
2021/05/20 02:54:29;;;;;;;5.65;2.05;;;11.70;59.10;;;;;;4865081;29;20453;-70
2021/05/20 02:56:54;;;;;;;4.10;1.70;;;11.60;60.00;;;;;;4847734;29;20044;-70
2021/05/20 02:59:20;;;;;;;3.20;1.50;;;11.60;59.40;;;;;;4848026;29;20034;-70
2021/05/20 03:01:47;;;;;;;3.67;1.60;;;11.60;60.30;;;;;;4864479;29;20109;-70
2021/05/20 03:04:13;;;;;;;3.47;1.60;;;11.60;59.30;;;;;;4867593;29;20021;-70
2021/05/20 03:06:40;;;;;;;2.85;1.40;;;11.60;59.30;;;;;;4880091;29;20025;-70
2021/05/20 03:09:09;;;;;;;3.40;1.50;;;11.70;59.40;;;;;;4883219;29;20044;-70
2021/05/20 03:11:35;;;;;;;2.20;1.30;;;11.70;59.90;;;;;;4867202;29;20026;-70
2021/05/20 03:14:01;;;;;;;3.05;1.48;;;11.70;60.30;;;;;;4864643;29;20068;-70
2021/05/20 03:16:27;;;;;;;3.15;1.30;;;11.60;60.80;;;;;;4864608;29;20434;-70
2021/05/20 03:18:55;;;;;;;3.70;1.50;;;11.70;59.80;;;;;;4864491;29;20034;-70
2021/05/20 03:21:21;;;;;;;4.65;1.40;;;11.70;59.40;;;;;;4864602;29;20030;-70
2021/05/20 03:23:47;;;;;;;3.42;1.50;;;11.70;59.50;;;;;;4864519;29;20059;-70
2021/05/20 03:26:12;;;;;;;3.72;1.63;;;11.80;59.80;;;;;;4864448;29;20017;-70
2021/05/20 03:28:38;;;;;;;3.90;1.60;;;11.70;60.70;;;;;;4864479;29;20065;-70
2021/05/20 03:31:04;;;;;;;4.60;1.73;;;11.80;60.10;;;;;;4864555;29;20026;-70
2021/05/20 03:33:30;;;;;;;3.38;1.33;;;11.80;62.10;;;;;;4863116;29;20428;-70
2021/05/20 03:35:57;;;;;;;3.28;1.30;;;11.80;61.60;;;;;;4869147;29;20396;-70
2021/05/20 03:38:23;;;;;;;2.53;1.30;;;11.80;60.70;;;;;;4883028;29;20037;-70
2021/05/20 03:40:50;;;;;;;5.35;1.48;;;11.80;61.60;;;;;;4866144;29;20030;-70
2021/05/20 03:43:16;;;;;;;2.15;1.23;;;11.70;61.60;;;;;;4867828;29;20108;-70
2021/05/20 03:45:41;;;;;;;6.13;1.60;;;11.70;62.30;;;;;;4867388;29;20053;-70
2021/05/20 03:48:08;;;;;;;3.30;1.73;;;11.70;62.70;;;;;;4867703;29;20025;-70
2021/05/20 03:50:33;;;;;;;3.45;1.20;;;11.70;63.10;;;;;;4867839;29;20085;-70
2021/05/20 03:53:00;;;;;;;3.17;1.20;;;11.70;63.20;;;;;;4867767;29;20033;-70
2021/05/20 03:55:25;;;;;;;5.28;1.75;;;11.70;62.20;;;;;;4867334;29;20089;-71
2021/05/20 03:57:52;;;;;;;3.63;1.40;;;11.80;63.00;;;;;;4867450;29;20049;-70
2021/05/20 04:00:18;;;;;;;2.67;1.10;;;11.80;61.50;;;;;;4867316;29;20040;-71
2021/05/20 04:02:44;;;;;;;3.45;1.30;;;11.80;61.50;;;;;;4867407;29;20055;-70
2021/05/20 04:05:11;;;;;;;6.38;3.63;;;11.80;61.70;;;;;;4877472;29;20508;-70
2021/05/20 04:07:37;;;;;;;4.47;2.50;;;11.80;62.00;;;;;;4882577;29;20449;-70
2021/05/20 04:10:03;;;;;;;3.00;1.63;;;11.90;62.20;;;;;;4881841;29;20038;-71
2021/05/20 04:12:29;;;;;;;4.57;1.63;;;11.90;61.40;;;;;;4867001;29;20081;-70
2021/05/20 04:14:55;;;;;;;5.53;1.60;;;11.90;61.60;;;;;;4867149;29;20029;-70
2021/05/20 04:17:21;;;;;;;3.28;1.40;;;11.90;62.10;;;;;;4867099;29;20045;-70
2021/05/20 04:19:46;;;;;;;3.00;1.65;;;11.90;62.90;;;;;;4866997;29;20040;-72
2021/05/20 04:22:12;;;;;;;6.50;1.80;;;11.90;64.20;;;;;;4863921;29;20076;-72
2021/05/20 04:24:38;;;;;;;3.33;1.50;;;11.80;65.20;;;;;;4878373;29;20030;-70
2021/05/20 04:27:05;;;;;;;3.40;1.73;;;11.80;64.60;;;;;;4866741;29;20037;-70
2021/05/20 04:29:31;;;;;;;3.20;1.65;;;11.80;64.00;;;;;;4866963;29;20489;-70
2021/05/20 04:31:57;;;;;;;3.45;1.52;;;11.80;63.90;;;;;;4866709;29;20040;-70
2021/05/20 04:34:22;;;;;;;3.28;1.70;;;11.80;64.40;;;;;;4866997;29;20033;-71
2021/05/20 04:36:48;;;;;;;6.50;1.83;;;11.80;63.80;;;;;;4878286;29;20043;-71
2021/05/20 04:39:14;;;;;;;5.68;1.70;;;11.80;64.60;;;;;;4867289;29;20026;-70
2021/05/20 04:41:40;;;;;;;5.07;1.73;;;11.80;64.10;;;;;;4866546;29;20037;-72
2021/05/20 04:44:06;;;;;;;4.50;2.67;;;11.80;64.20;;;;;;4866528;29;20057;-71
2021/05/20 04:46:32;;;;;;;4.93;1.80;;;11.80;64.80;;;;;;4866701;29;20033;-71
2021/05/20 04:48:58;;;;;;;3.80;1.75;;;11.80;63.70;;;;;;4866344;29;20030;-73
2021/05/20 04:51:23;;;;;;;6.53;2.10;;;11.80;63.90;;;;;;4865647;29;20037;-69
2021/05/20 04:53:50;;;;;;;4.97;1.80;;;11.80;64.00;;;;;;4866449;29;20033;-71
2021/05/20 04:56:22;;;;;;;4.35;1.80;;;11.80;64.90;;;;;;4866433;29;20116;-70
2021/05/20 04:58:49;;;;;;;3.33;1.45;;;11.70;65.10;;;;;;4873651;29;20518;-71
2021/05/20 05:01:15;;;;;;;5.85;1.80;;;11.70;65.30;;;;;;4871520;29;20120;-71
2021/05/20 05:03:41;;;;;;;5.60;1.70;;;11.70;66.60;;;;;;4849552;29;20088;-73
2021/05/20 05:06:07;;;;;;;3.80;1.73;;;11.70;65.20;;;;;;4875389;29;20034;-70
2021/05/20 05:08:32;;;;;;;4.05;2.28;;;11.70;66.60;;;;;;4871102;29;20437;-69
2021/05/20 05:10:58;;;;;;;4.15;2.05;;;11.70;66.80;;;;;;4876121;29;20033;-67
2021/05/20 05:13:24;;;;;;;3.22;1.80;;;11.70;66.00;;;;;;4875385;29;20029;-67
2021/05/20 05:15:49;;;;;;;3.72;2.00;;;11.70;66.40;;;;;;4867684;29;20069;-67
2021/05/20 05:18:15;;;;;;;4.75;2.15;;;11.70;65.70;;;;;;4865944;29;20033;-68
2021/05/20 05:20:41;;;;;;;5.00;1.83;;;11.70;66.00;;;;;;4876343;29;20100;-70
2021/05/20 05:23:07;;;;;;;4.32;1.80;;;11.70;66.30;;;;;;4867009;29;20063;-68
2021/05/20 05:25:33;;;;;;;4.78;1.67;;;11.80;65.60;;;;;;4866730;29;20034;-71
2021/05/20 05:27:59;;;;;;;5.35;2.00;;;11.80;66.40;;;;;;4866028;29;20481;-70
2021/05/20 05:30:25;;;;;;;5.78;2.22;;;11.80;65.40;;;;;;4866400;29;20476;-69
2021/05/20 05:32:51;;;;;;;4.90;1.90;;;11.90;66.60;;;;;;4873778;29;20029;-69
2021/05/20 05:35:16;;;;;;;5.68;1.90;;;11.90;67.50;;;;;;4869806;29;20037;-69
2021/05/20 05:37:42;;;;;;;5.03;1.90;;;11.90;66.40;;;;;;4867608;29;20036;-69
2021/05/20 05:40:08;;;;;;;6.30;2.10;;;11.90;66.40;;;;;;4876668;29;20044;-70
2021/05/20 05:42:34;;;;;;;5.28;1.80;;;12.00;66.40;;;;;;4866416;29;20489;-69
2021/05/20 05:45:00;;;;;;;3.67;1.88;;;12.00;66.40;;;;;;4866312;29;20131;-69
2021/05/20 05:47:26;;;;;;;4.13;1.88;;;12.00;66.80;;;;;;4887230;29;20016;-69
2021/05/20 05:49:53;;;;;;;4.88;1.80;;;12.10;66.40;;;;;;4885315;29;20039;-69
2021/05/20 05:52:23;;;;;;;5.65;2.72;;;12.10;66.80;;;;;;4891024;29;20107;-69
2021/05/20 05:54:52;;;;;;;3.20;1.63;;;12.10;67.50;;;;;;4874773;29;20093;-69
2021/05/20 05:57:18;;;;;;;6.05;2.38;;;12.20;66.70;;;;;;4879663;29;20033;-69
2021/05/20 05:59:43;;;;;;;5.40;1.83;;;12.20;66.90;;;;;;4869814;29;20061;-69
2021/05/20 06:02:13;;;;;;;3.47;1.75;;;12.20;69.00;;;;;;4865746;29;20045;-69
2021/05/20 06:04:39;;;;;;;4.65;1.60;;;12.30;69.00;;;;;;4866460;29;20034;-70
2021/05/20 06:07:05;;;;;;;6.60;1.88;;;12.30;68.00;;;;;;4878838;29;20025;-69
2021/05/20 06:09:30;;;;;;;6.18;2.88;;;12.30;68.40;;;;;;4887024;29;20068;-70
2021/05/20 06:11:57;;;;;;;6.40;2.20;;;12.30;69.10;;;;;;4878942;29;20033;-70
2021/05/20 06:14:23;;;;;;;6.10;2.28;;;12.40;68.50;;;;;;4883439;29;20377;-70
2021/05/20 06:16:49;;;;;;;6.82;2.15;;;12.40;68.40;;;;;;4879137;29;20053;-70
2021/05/20 06:19:15;;;;;;;4.00;1.55;;;12.40;68.50;;;;;;4875668;29;20021;-70
2021/05/20 06:21:41;;;;;;;4.35;1.80;;;12.50;68.70;;;;;;4869913;29;20025;-70
2021/05/20 06:24:07;;;;;;;3.33;1.80;;;12.60;69.40;;;;;;4883556;29;20104;-70
2021/05/20 06:26:33;;;;;;;4.85;1.67;;;12.60;69.80;;;;;;4883014;29;20066;-72
2021/05/20 06:28:59;;;;;;;3.78;1.83;;;12.70;69.20;;;;;;4883456;29;20033;-70
2021/05/20 06:31:25;;;;;;;3.78;1.80;;;12.80;68.70;;;;;;4868054;29;20920;-70
2021/05/20 06:33:51;;;;;;;4.03;1.60;;;12.90;69.00;;;;;;4883238;29;20228;-69
2021/05/20 06:36:18;;;;;;;6.13;1.77;;;13.00;70.60;;;;;;4878188;29;20030;-69
2021/05/20 06:38:43;;;;;;;6.65;1.50;;;13.10;68.80;;;;;;4882724;29;20081;-69
2021/05/20 06:41:09;;;;;;;5.40;2.28;;;13.20;68.80;;;;;;4880447;29;20493;-69
2021/05/20 06:43:37;;;;;;;4.15;1.50;;;13.30;69.30;;;;;;4870597;29;20499;-69
2021/05/20 06:46:07;;;;;;;5.75;1.63;;;13.40;70.50;;;;;;4864857;29;20078;-68
2021/05/20 06:48:33;;;;;;;5.18;1.67;;;13.40;70.60;;;;;;4864681;29;20068;-69
2021/05/20 06:51:00;;;;;;;5.90;1.70;;;13.50;70.30;;;;;;4865046;29;20033;-69
2021/05/20 06:53:29;;;;;;;5.22;1.67;;;13.50;70.50;;;;;;4875192;29;20039;-69
2021/05/20 06:55:58;;;;;;;6.20;2.08;;;13.60;70.90;;;;;;4879863;29;20092;-69
2021/05/20 07:01:08;;;;;;;3.50;1.77;;;13.70;70.60;;;;;;4864955;29;20049;-69
2021/05/20 07:03:34;;;;;;;5.60;1.77;;;13.80;71.20;;;;;;4864397;29;20461;-71
2021/05/20 07:06:01;;;;;;;7.40;2.03;;;13.90;71.00;;;;;;4881069;29;20116;-69
2021/05/20 07:08:27;;;;;;;6.82;2.00;;;14.00;70.90;;;;;;4855666;29;20021;-68
2021/05/20 07:10:57;;;;;;;3.92;1.63;;;14.00;70.10;;;;;;4871950;29;20033;-70
2021/05/20 07:13:23;;;;;;;7.18;1.88;;;14.00;70.20;;;;;;4883080;29;20437;-70
2021/05/20 07:15:50;;;;;;;5.82;1.90;;;14.10;70.50;;;;;;4885404;29;20040;-68
2021/05/20 07:18:16;;;;;;;4.38;1.67;;;14.10;70.20;;;;;;4886735;29;20029;-71
2021/05/20 07:20:42;;;;;;;6.78;2.00;;;14.20;70.80;;;;;;4886565;29;20396;-70
2021/05/20 07:23:10;;;;;;;5.55;1.95;;;14.10;70.20;;;;;;4886789;29;20032;-68
2021/05/20 07:25:36;;;;;;;6.78;1.85;;;14.10;70.40;;;;;;4869740;29;20396;-69
2021/05/20 07:28:02;;;;;;;4.70;1.40;;;14.20;70.70;;;;;;4886547;29;20021;-72
2021/05/20 07:30:28;;;;;;;5.65;1.75;;;14.20;70.10;;;;;;4874313;29;20089;-71
2021/05/20 07:32:54;;;;;;;6.10;1.98;;;14.30;70.30;;;;;;4878944;29;20101;-71
2021/05/20 07:35:20;;;;;;;4.07;1.25;;;14.30;69.80;;;;;;4867968;29;20029;-71
2021/05/20 07:37:45;;;;;;;6.18;1.67;;;14.40;70.10;;;;;;4885128;29;20069;-71
2021/05/20 07:40:12;;;;;;;4.47;1.92;;;14.40;69.90;;;;;;4885089;29;20036;-71
2021/05/20 07:42:39;;;;;;;7.43;1.77;;;14.40;70.40;;;;;;4867988;29;20022;-71
2021/05/20 07:45:06;;;;;;;6.95;1.40;;;14.40;70.00;;;;;;4867426;29;20138;-71
2021/05/20 07:47:32;;;;;;;3.60;1.27;;;14.40;70.10;;;;;;4867793;29;20089;-71
2021/05/20 07:49:58;;;;;;;4.88;1.20;;;14.50;69.60;;;;;;4877564;29;20460;-70
2021/05/20 07:52:23;;;;;;;6.25;1.60;;;14.50;69.10;;;;;;4878588;29;20437;-71
2021/05/20 07:54:49;;;;;;;3.28;1.35;;;14.50;69.50;;;;;;4882131;29;20064;-71
2021/05/20 07:57:16;;;;;;;5.75;1.40;;;14.60;68.80;;;;;;4867371;29;20116;-70
2021/05/20 07:59:42;;;;;;;3.95;1.33;;;14.60;69.20;;;;;;4881439;29;20580;-71
2021/05/20 08:04:56;;;;;;;7.13;1.30;;;14.70;68.50;;;;;;4883710;29;20035;-71
2021/05/20 08:07:34;;;;;;;5.18;1.65;;;14.90;68.60;;;;;;4878185;29;20033;-71
2021/05/20 08:10:26;;;;;;;6.47;1.33;;;15.10;69.40;;;;;;4881818;29;20029;-71
2021/05/20 08:12:52;;;;;;;4.68;1.77;;;15.50;67.90;;;;;;4884595;29;20089;-71
2021/05/20 08:15:18;;;;;;;4.10;1.27;;;15.70;66.40;;;;;;4867179;29;20037;-71
2021/05/20 08:17:43;;;;;;;5.18;2.08;;;15.80;65.60;;;;;;4879315;29;20378;-71
2021/05/20 08:20:10;;;;;;;3.88;1.10;;;15.90;66.20;;;;;;4866911;29;20040;-71
2021/05/20 08:22:37;;;;;;;3.67;1.10;;;16.00;63.80;;;;;;4865603;29;20560;-71
2021/05/20 08:25:05;;;;;;;3.13;0.93;;;16.00;63.70;;;;;;4866917;29;20021;-72
2021/05/20 08:27:33;;;;;;;4.57;1.67;;;16.00;64.10;;;;;;4866664;29;20686;-71
2021/05/20 08:29:59;;;;;;;3.72;1.05;;;16.00;64.30;;;;;;4866881;29;20397;-71
2021/05/20 08:32:25;;;;;;;4.30;1.02;;;16.10;63.50;;;;;;4866721;29;20026;-71
2021/05/20 08:34:51;;;;;;;3.45;1.05;;;16.30;61.60;;;;;;4867073;29;20401;-71
2021/05/20 08:37:17;;;;;;;3.83;0.98;;;16.50;62.40;;;;;;4878108;29;20033;-71
2021/05/20 08:39:43;;;;;;;4.03;0.70;;;16.70;59.60;;;;;;4866535;29;20040;-72
2021/05/20 08:42:08;;;;;;;5.72;1.15;;;16.80;59.50;;;;;;4866322;29;20022;-72
2021/05/20 08:44:34;;;;;;;4.30;0.85;;;16.90;60.30;;;;;;4866815;29;20057;-72
2021/05/20 08:47:00;;;;;;;4.10;0.90;;;16.90;59.30;;;;;;4866354;29;20652;-72
2021/05/20 08:49:26;;;;;;;5.47;1.70;;;17.00;59.60;;;;;;4866650;29;20399;-71
2021/05/20 08:51:52;;;;;;;4.78;1.00;;;17.00;60.40;;;;;;4866365;29;20045;-71
2021/05/20 08:54:21;;;;;;;7.60;2.60;;;17.10;59.00;;;;;;4866221;29;20045;-71
2021/05/20 08:56:49;;;;;;;7.18;5.15;;;17.00;58.80;;;;;;4889902;29;20399;-71
2021/05/20 08:59:15;;;;;;;3.60;1.30;;;16.90;59.80;;;;;;4894079;29;20096;-71
2021/05/20 09:01:43;;;;;;;4.32;0.93;;;16.90;59.00;;;;;;4868593;29;20048;-71
2021/05/20 09:04:10;;;;;;;2.20;0.70;;;16.90;59.20;;;;;;4881421;29;20068;-71
2021/05/20 09:06:51;;;;;;;5.60;1.17;;;16.90;58.80;;;;;;4880197;29;20626;-71
2021/05/20 09:09:27;;;;;;;2.95;0.85;;;16.80;58.60;;;;;;4888450;29;20032;-70
2021/05/20 09:11:56;;;;;;;4.78;1.40;;;16.80;58.70;;;;;;4890008;29;20032;-71
2021/05/20 09:14:33;;;;;;;3.15;0.90;;;16.70;59.10;;;;;;4885101;29;20045;-72
2021/05/20 09:17:19;;;;;;;3.58;1.00;;;16.70;59.70;;;;;;4880740;29;20029;-71
2021/05/20 09:19:57;;;;;;;2.67;0.85;;;16.60;59.50;;;;;;4880137;29;20061;-71
2021/05/20 09:22:24;;;;;;;5.35;1.08;;;16.60;58.40;;;;;;4892855;29;20056;-71
2021/05/20 09:24:52;;;;;;;3.58;0.90;;;16.60;58.30;;;;;;4881440;29;20037;-71
2021/05/20 09:27:34;;;;;;;3.00;0.90;;;16.70;58.40;;;;;;4883542;29;20120;-71
2021/05/20 09:30:15;;;;;;;4.40;0.82;;;16.70;58.70;;;;;;4890790;29;20095;-72
2021/05/20 09:32:57;;;;;;;2.72;0.70;;;16.80;57.30;;;;;;4884161;29;20025;-71
2021/05/20 09:35:27;;;;;;;2.17;0.80;;;16.90;57.60;;;;;;4883713;29;20377;-70
2021/05/20 09:37:56;;;;;;;3.92;0.77;;;17.20;56.40;;;;;;4882082;29;20041;-69
2021/05/20 09:40:30;;;;;;;3.38;0.70;;;17.40;55.20;;;;;;4880499;29;20029;-71
2021/05/20 09:42:56;;;;;;;2.65;0.80;;;17.60;55.50;;;;;;4883951;29;20101;-72
2021/05/20 09:45:24;;;;;;;1.77;0.63;;;17.60;55.80;;;;;;4883778;29;20033;-71
2021/05/20 09:47:51;;;;;;;2.08;0.75;;;17.90;56.00;;;;;;4883736;29;20033;-71
2021/05/20 09:50:20;;;;;;;3.85;1.05;;;18.20;54.50;;;;;;4883568;29;20485;-71
2021/05/20 09:52:48;;;;;;;4.47;1.10;;;18.40;54.90;;;;;;4883789;29;20496;-70
2021/05/20 09:55:25;;;;;;;3.42;0.90;;;18.50;55.30;;;;;;4883506;29;20029;-71
2021/05/20 09:57:53;;;;;;;2.85;0.77;;;18.50;54.30;;;;;;4883965;29;20044;-71
2021/05/20 10:00:22;;;;;;;3.08;0.82;;;18.50;54.00;;;;;;4866654;29;20036;-71
2021/05/20 10:02:59;;;;;;;7.50;2.92;;;18.50;54.40;;;;;;4883538;29;20113;-73
2021/05/20 10:05:34;;;;;;;11.82;6.93;;;18.40;54.00;;;;;;4887574;29;20056;-73
2021/05/20 10:08:03;;;;;;;3.75;1.30;;;18.40;54.90;;;;;;4883387;29;20029;-71
2021/05/20 10:10:28;;;;;;;5.10;1.90;;;18.40;53.80;;;;;;4872994;29;20391;-71
2021/05/20 10:12:54;;;;;;;4.38;1.33;;;18.30;54.50;;;;;;4881753;29;20056;-71
2021/05/20 10:15:23;;;;;;;5.13;1.17;;;18.20;54.20;;;;;;4865089;29;20029;-71
2021/05/20 10:17:50;;;;;;;3.95;1.00;;;18.10;53.60;;;;;;4864847;29;20040;-71
2021/05/20 10:20:21;;;;;;;3.28;0.90;;;18.00;54.80;;;;;;4864962;29;20070;-71
2021/05/20 10:22:49;;;;;;;3.30;0.98;;;17.90;54.40;;;;;;4864955;29;20032;-71
2021/05/20 10:25:18;;;;;;;6.25;1.55;;;17.80;53.70;;;;;;4864912;29;20080;-71
2021/05/20 10:27:44;;;;;;;4.63;1.83;;;17.80;53.90;;;;;;4864839;29;20022;-71
2021/05/20 10:30:13;;;;;;;7.22;3.40;;;17.70;54.20;;;;;;4864922;29;20104;-70
2021/05/20 10:32:40;;;;;;;3.65;0.90;;;17.70;54.60;;;;;;4864621;29;20041;-72
2021/05/20 10:35:14;;;;;;;3.83;0.93;;;17.80;54.10;;;;;;4865034;29;20506;-71
2021/05/20 10:37:41;;;;;;;3.72;0.80;;;17.80;55.40;;;;;;4882686;29;20025;-71
2021/05/20 10:40:23;;;;;;;3.95;0.80;;;17.80;54.20;;;;;;4882796;29;20461;-71
2021/05/20 10:43:02;;;;;;;3.95;0.70;;;17.90;53.30;;;;;;4883628;29;20104;-71
2021/05/20 10:45:28;;;;;;;2.88;0.77;;;17.80;52.30;;;;;;4866841;29;20022;-71
2021/05/20 10:48:03;;;;;;;3.78;0.88;;;17.80;52.80;;;;;;4864763;29;20030;-71
2021/05/20 10:50:55;;;;;;;4.13;0.80;;;17.80;53.80;;;;;;4868245;29;20029;-71
2021/05/20 10:53:59;;;;;;;3.08;0.82;;;17.80;54.30;;;;;;4868324;29;20128;-71
2021/05/20 10:56:34;;;;;;;3.53;1.00;;;17.80;53.10;;;;;;4867847;29;20021;-72
2021/05/20 10:59:01;;;;;;;4.88;0.80;;;17.80;52.10;;;;;;4868389;29;20067;-71
2021/05/20 11:01:27;;;;;;;3.78;0.95;;;17.80;52.00;;;;;;4867784;29;20397;-71
2021/05/20 11:04:05;;;;;;;2.13;0.90;;;17.80;53.20;;;;;;4868586;29;20086;-71
2021/05/20 11:06:35;;;;;;;3.50;1.00;;;17.80;53.20;;;;;;4877637;29;20053;-71
2021/05/20 11:09:05;;;;;;;3.35;0.95;;;17.70;52.90;;;;;;4884076;29;20025;-71
2021/05/20 11:11:31;;;;;;;2.92;0.75;;;17.70;52.70;;;;;;4883494;29;20045;-71
2021/05/20 11:13:58;;;;;;;2.85;1.02;;;17.70;52.00;;;;;;4886638;29;20090;-71
2021/05/20 11:16:35;;;;;;;3.35;0.90;;;17.70;52.40;;;;;;4886323;29;20031;-71
2021/05/20 11:19:23;;;;;;;4.20;0.90;;;17.80;53.40;;;;;;4886425;29;20472;-71
2021/05/20 11:21:58;;;;;;;2.85;0.90;;;17.80;52.70;;;;;;4881667;29;20025;-71
2021/05/20 11:24:28;;;;;;;8.93;1.30;;;17.90;53.50;;;;;;4886538;29;20029;-70
2021/05/20 11:26:56;;;;;;;3.60;0.80;;;18.00;51.30;;;;;;4888486;29;20064;-70
2021/05/20 11:29:26;;;;;;;4.65;1.05;;;18.10;51.80;;;;;;4886279;29;20025;-70
2021/05/20 11:32:00;;;;;;;4.53;0.82;;;18.30;51.10;;;;;;4886229;29;20039;-70
2021/05/20 11:34:49;;;;;;;3.63;1.20;;;18.60;52.50;;;;;;4888152;29;20025;-70
2021/05/20 11:37:38;;;;;;;3.40;0.77;;;19.10;50.80;;;;;;4886188;29;20124;-70
2021/05/20 11:40:06;;;;;;;2.97;0.90;;;19.40;50.40;;;;;;4885857;29;20085;-71
2021/05/20 11:42:33;;;;;;;2.05;0.77;;;19.60;50.00;;;;;;4886200;29;20033;-70
2021/05/20 11:45:04;;;;;;;3.72;0.90;;;19.50;49.50;;;;;;4885810;29;20025;-70
2021/05/20 11:47:30;;;;;;;3.92;0.90;;;19.40;49.80;;;;;;4886023;29;20025;-70
2021/05/20 11:49:56;;;;;;;3.13;0.80;;;19.30;50.60;;;;;;4884605;29;20040;-74
2021/05/20 11:52:25;;;;;;;3.97;0.90;;;19.20;51.10;;;;;;4886209;29;20395;-71
2021/05/20 11:54:52;;;;;;;5.07;1.02;;;19.20;51.30;;;;;;4884322;29;20044;-72
2021/05/20 11:57:23;;;;;;;5.35;1.10;;;19.10;51.20;;;;;;4883682;29;20464;-72
2021/05/20 11:59:56;;;;;;;3.50;0.80;;;19.10;52.50;;;;;;4889199;29;20049;-71
2021/05/20 12:02:31;;;;;;;6.53;1.10;;;19.00;50.10;;;;;;4885198;29;20071;-71
2021/05/20 12:05:18;;;;;;;3.47;0.77;;;18.90;49.70;;;;;;4880797;29;20065;-71
2021/05/20 12:07:44;;;;;;;5.43;1.48;;;18.80;50.30;;;;;;4883727;29;20472;-71
2021/05/20 12:10:15;;;;;;;4.35;1.02;;;18.70;50.00;;;;;;4879354;29;20060;-70
2021/05/20 12:12:47;;;;;;;4.75;1.08;;;18.70;51.00;;;;;;4885432;29;20484;-71
2021/05/20 12:15:25;;;;;;;3.80;0.82;;;18.60;51.00;;;;;;4885672;29;20060;-71
2021/05/20 12:17:54;;;;;;;2.72;0.80;;;18.70;51.30;;;;;;4885222;29;20069;-70
2021/05/20 12:20:20;;;;;;;4.18;0.90;;;18.60;51.20;;;;;;4885271;29;20037;-71
2021/05/20 12:22:47;;;;;;;3.35;1.20;;;18.50;51.60;;;;;;4885360;29;20033;-71
2021/05/20 12:25:16;;;;;;;4.75;1.08;;;18.50;52.40;;;;;;4885202;29;20029;-71
2021/05/20 12:27:43;;;;;;;5.25;1.20;;;18.50;52.20;;;;;;4885375;29;20112;-70
2021/05/20 12:30:11;;;;;;;3.75;1.05;;;18.50;52.20;;;;;;4868430;29;20112;-71
2021/05/20 12:32:40;;;;;;;3.17;0.90;;;18.50;52.10;;;;;;4883633;29;20072;-71
2021/05/20 12:35:12;;;;;;;6.13;1.10;;;18.40;51.70;;;;;;4885224;29;20065;-71
2021/05/20 12:37:58;;;;;;;7.05;1.35;;;18.50;51.70;;;;;;4885104;29;20041;-71
2021/05/20 12:40:47;;;;;;;4.35;0.98;;;18.50;52.00;;;;;;4884745;29;20090;-71
2021/05/20 12:43:15;;;;;;;6.18;1.10;;;18.50;51.50;;;;;;4873995;29;20045;-71
2021/05/20 12:45:45;;;;;;;6.55;1.63;;;18.60;52.20;;;;;;4884816;29;20543;-71
2021/05/20 12:48:25;;;;;;;5.85;1.77;;;18.70;52.60;;;;;;4884961;29;20045;-71
2021/05/20 12:50:52;;;;;;;7.45;1.30;;;18.70;52.40;;;;;;4880335;29;20081;-71
2021/05/20 12:53:54;;;;;;;5.63;1.65;;;18.80;52.90;;;;;;4884971;29;20107;-71
2021/05/20 12:56:26;;;;;;;5.38;1.60;;;18.90;53.90;;;;;;4884902;29;20021;-72
2021/05/20 12:59:05;;;;;;;4.97;1.30;;;19.00;54.60;;;;;;4877918;29;20053;-70
2021/05/20 13:01:39;;;;;;;6.40;1.20;;;19.00;52.30;;;;;;4879202;29;20112;-71